Time;durP1;ratioP1;P1;durP2;ratioP2;P2;SDS_P1;SDS_P2;PMS_P1;PMS_P2;Temp;Humidity;BMP_temperature;BMP_pressure;BME280_temperature;BME280_humidity;BME280_pressure;Samples;Min_cycle;Max_cycle;Signal;HPM_P1;HPM_P2
2022/11/11 00:02:20;;;;;;;;;;;;;;;5.74;83.07;99514.13;5124719;27;19934;-58
2022/11/11 00:05:07;;;;;;;;;;;;;;;5.68;82.97;99507.81;5124257;27;20386;-58
2022/11/11 00:07:58;;;;;;;;;;;;;;;5.67;82.98;99510.75;5126076;27;20291;-57
2022/11/11 00:10:45;;;;;;;;;;;;;;;5.62;83.51;99503.38;5128758;27;19976;-58
2022/11/11 00:13:33;;;;;;;;;;;;;;;5.37;84.23;99502.88;5130346;27;19934;-58
2022/11/11 00:16:20;;;;;;;;;;;;;;;5.33;84.33;99499.03;5133087;27;20476;-58
2022/11/11 00:25:21;;;;;;;;;;;;;;;5.44;83.29;99482.00;5135549;27;20087;-57
2022/11/11 00:28:07;;;;;;;;;;;;;;;5.34;82.80;99487.19;5136762;27;20398;-57
2022/11/11 00:31:04;;;;;;;;;;;;;;;5.29;83.70;99484.41;5132446;27;20037;-59
2022/11/11 00:33:52;;;;;;;;;;;;;;;5.29;83.29;99473.63;5130278;27;20353;-58
2022/11/11 00:37:03;;;;;;;;;;;;;;;5.25;83.02;99479.47;5130855;27;20000;-58
2022/11/11 00:40:14;;;;;;;;;;;;;;;5.32;83.13;99473.13;5119144;27;19935;-58
2022/11/11 00:43:01;;;;;;;;;;;;;;;5.36;83.31;99477.00;5124002;27;19968;-58
2022/11/11 00:45:48;;;;;;;;;;;;;;;5.35;82.40;99480.75;5129708;27;20015;-58
2022/11/11 00:51:43;;;;;;;;;;;;;;;5.32;82.47;99483.91;5130214;27;20403;-58
2022/11/11 00:54:30;;;;;;;;;;;;;;;5.23;82.50;99489.69;5120353;27;19976;-58
2022/11/11 00:57:18;;;;;;;;;;;;;;;5.26;82.65;99486.50;5132286;27;20080;-58
2022/11/11 01:00:06;;;;;;;;;;;;;;;5.24;82.53;99488.63;5132259;27;19965;-58
2022/11/11 01:02:52;;;;;;;;;;;;;;;5.31;82.51;99490.34;5127683;27;20299;-58
2022/11/11 01:05:40;;;;;;;;;;;;;;;5.28;82.78;99494.34;5130966;27;19980;-58
2022/11/11 01:08:27;;;;;;;;;;;;;;;5.22;82.64;99506.09;5124077;27;20016;-57
2022/11/11 01:11:14;;;;;;;;;;;;;;;5.19;82.80;99510.06;5127070;27;20063;-58
2022/11/11 01:14:03;;;;;;;;;;;;;;;5.04;83.71;99509.72;5131085;27;20014;-57
2022/11/11 01:16:50;;;;;;;;;;;;;;;5.10;83.70;99513.34;5124583;27;19930;-58
2022/11/11 01:19:38;;;;;;;;;;;;;;;4.95;83.85;99513.81;5126524;27;20096;-58
2022/11/11 01:22:26;;;;;;;;;;;;;;;5.03;83.75;99507.28;5126402;27;19934;-58
2022/11/11 01:25:13;;;;;;;;;;;;;;;5.11;83.34;99515.00;5132131;27;20037;-58
2022/11/11 01:28:00;;;;;;;;;;;;;;;5.15;83.31;99511.59;5126205;27;19992;-58
2022/11/11 01:30:47;;;;;;;;;;;;;;;5.08;83.04;99515.47;5130923;27;19934;-58
2022/11/11 01:33:33;;;;;;;;;;;;;;;5.06;83.75;99510.34;5140496;27;19948;-58
2022/11/11 01:36:21;;;;;;;;;;;;;;;5.12;83.54;99517.47;5131624;27;19930;-57
2022/11/11 01:39:09;;;;;;;;;;;;;;;5.09;83.40;99504.47;5126041;28;19934;-57
2022/11/11 01:41:56;;;;;;;;;;;;;;;5.02;82.90;99511.84;5142220;27;19930;-58
2022/11/11 01:44:47;;;;;;;;;;;;;;;4.96;83.39;99513.63;5132004;28;20735;-58
2022/11/11 01:51:00;;;;;;;;;;;;;;;4.83;83.13;99521.09;5131797;27;19934;-57
2022/11/11 01:53:49;;;;;;;;;;;;;;;4.86;83.21;99517.94;5131391;27;20018;-58
2022/11/11 01:56:37;;;;;;;;;;;;;;;4.87;82.82;99523.09;5131698;27;20499;-58
2022/11/11 01:59:24;;;;;;;;;;;;;;;4.84;83.19;99531.63;5117511;27;19924;-58
2022/11/11 02:02:13;;;;;;;;;;;;;;;4.90;82.52;99519.09;5129109;28;19934;-59
2022/11/11 02:08:07;;;;;;;;;;;;;;;4.63;83.93;99516.88;5131091;27;19976;-58
2022/11/11 02:10:54;;;;;;;;;;;;;;;4.72;84.04;99523.56;5116006;28;20502;-58
2022/11/11 02:16:49;;;;;;;;;;;;;;;4.81;83.40;99525.91;5132326;27;20353;-58
2022/11/11 02:19:37;;;;;;;;;;;;;;;4.68;83.39;99524.25;5121207;28;19935;-58
2022/11/11 02:22:26;;;;;;;;;;;;;;;4.72;83.18;99518.16;5122190;27;19931;-58
2022/11/11 02:25:16;;;;;;;;;;;;;;;4.78;82.59;99519.09;5128852;28;20292;-57
2022/11/11 02:28:04;;;;;;;;;;;;;;;4.78;82.84;99520.97;5128940;27;19954;-57
2022/11/11 02:31:16;;;;;;;;;;;;;;;4.81;82.44;99525.91;5133589;27;19931;-57
2022/11/11 02:34:02;;;;;;;;;;;;;;;4.74;82.27;99526.03;5128673;27;20490;-58
2022/11/11 02:36:50;;;;;;;;;;;;;;;4.69;82.42;99518.66;5131634;27;20299;-58
2022/11/11 02:39:38;;;;;;;;;;;;;;;4.67;82.81;99514.53;5120109;27;19955;-57
2022/11/11 02:42:49;;;;;;;;;;;;;;;4.46;82.86;99518.63;5117547;27;19935;-58
2022/11/11 02:45:35;;;;;;;;;;;;;;;4.52;82.74;99515.00;5135216;27;19934;-57
2022/11/11 02:48:22;;;;;;;;;;;;;;;4.53;82.78;99516.66;5134567;27;19930;-58
2022/11/11 02:51:09;;;;;;;;;;;;;;;4.46;82.90;99515.94;5133198;27;19946;-56
2022/11/11 02:54:01;;;;;;;;;;;;;;;4.55;82.33;99522.63;5129279;27;20024;-58
2022/11/11 02:59:54;;;;;;;;;;;;;;;4.37;82.55;99526.22;5134975;27;19930;-58
2022/11/11 03:02:41;;;;;;;;;;;;;;;4.50;82.26;99524.38;5134805;27;20056;-57
2022/11/11 03:05:28;;;;;;;;;;;;;;;4.50;82.26;99530.56;5134663;27;19942;-57
2022/11/11 03:08:15;;;;;;;;;;;;;;;4.53;81.92;99529.25;5132933;27;20448;-58
2022/11/11 03:14:12;;;;;;;;;;;;;;;4.52;82.64;99524.94;5140434;27;20074;-57
2022/11/11 03:23:15;;;;;;;;;;;;;;;4.40;83.04;99541.06;5130403;27;19943;-58
2022/11/11 03:26:02;;;;;;;;;;;;;;;4.34;82.79;99547.38;5133310;27;19934;-57
2022/11/11 03:28:49;;;;;;;;;;;;;;;4.36;82.90;99545.28;5134970;27;19930;-58
2022/11/11 03:31:36;;;;;;;;;;;;;;;4.39;82.44;99545.63;5128259;27;19942;-58
2022/11/11 03:34:24;;;;;;;;;;;;;;;4.29;83.05;99547.25;5130432;27;19930;-57
2022/11/11 03:40:22;;;;;;;;;;;;;;;4.25;82.68;99538.00;5127740;27;19930;-57
2022/11/11 03:43:08;;;;;;;;;;;;;;;4.22;82.65;99541.16;5124699;27;20481;-58
2022/11/11 03:45:56;;;;;;;;;;;;;;;4.11;82.80;99537.38;5123904;27;19953;-58
2022/11/11 03:48:43;;;;;;;;;;;;;;;4.05;83.34;99535.59;5120188;27;19939;-58
2022/11/11 03:51:31;;;;;;;;;;;;;;;4.07;83.53;99542.41;5128279;27;19931;-58
2022/11/11 03:54:17;;;;;;;;;;;;;;;4.07;83.15;99537.00;5132689;27;19934;-58
2022/11/11 04:00:09;;;;;;;;;;;;;;;4.17;82.97;99537.28;5133266;27;20037;-57
2022/11/11 04:12:19;;;;;;;;;;;;;;;4.05;83.31;99528.38;5123054;27;19993;-56
2022/11/11 04:18:11;;;;;;;;;;;;;;;4.04;83.64;99534.78;5121125;27;20068;-58
2022/11/11 04:27:16;;;;;;;;;;;;;;;4.10;82.60;99541.09;5122302;27;20314;-58
2022/11/11 04:30:02;;;;;;;;;;;;;;;4.08;82.89;99544.03;5130622;27;19934;-59
2022/11/11 04:32:48;;;;;;;;;;;;;;;4.16;82.62;99549.09;5132992;27;20011;-58
2022/11/11 04:35:35;;;;;;;;;;;;;;;4.17;82.22;99552.59;5123033;27;19934;-58
2022/11/11 04:41:27;;;;;;;;;;;;;;;4.11;81.83;99564.28;5140400;27;19938;-57
2022/11/11 04:47:31;;;;;;;;;;;;;;;4.01;82.35;99575.59;5128971;27;20036;-59
2022/11/11 04:50:18;;;;;;;;;;;;;;;3.92;82.67;99574.25;5132436;27;19946;-57
2022/11/11 04:53:05;;;;;;;;;;;;;;;3.91;82.99;99572.63;5125299;27;20041;-56
2022/11/11 05:05:02;;;;;;;;;;;;;;;3.72;82.82;99581.75;5124612;27;19927;-58
2022/11/11 05:10:57;;;;;;;;;;;;;;;3.76;83.30;99581.06;5124427;27;19934;-56
2022/11/11 05:23:00;;;;;;;;;;;;;;;3.71;83.78;99593.56;5128090;27;19988;-57
2022/11/11 05:25:46;;;;;;;;;;;;;;;3.78;83.27;99600.50;5120178;27;20753;-57
2022/11/11 05:28:32;;;;;;;;;;;;;;;3.79;83.29;99598.63;5127524;27;20395;-56
2022/11/11 05:31:19;;;;;;;;;;;;;;;3.72;82.91;99596.00;5126731;27;19930;-57
2022/11/11 05:34:05;;;;;;;;;;;;;;;3.82;82.86;99592.78;5126091;27;19946;-57
2022/11/11 05:36:54;;;;;;;;;;;;;;;3.59;83.37;99590.81;5121403;28;20354;-57
2022/11/11 05:39:41;;;;;;;;;;;;;;;3.60;83.46;99595.94;5119566;27;20429;-57
2022/11/11 05:42:28;;;;;;;;;;;;;;;3.57;84.05;99606.31;5116845;28;20399;-57
2022/11/11 05:45:16;;;;;;;;;;;;;;;3.68;83.33;99603.72;5127582;28;20443;-58
2022/11/11 05:48:28;;;;;;;;;;;;;;;3.79;83.20;99614.75;5125771;28;19935;-56
2022/11/11 05:51:26;;;;;;;;;;;;;;;3.82;83.21;99628.56;5122043;28;19930;-57
2022/11/11 05:54:15;;;;;;;;;;;;;;;3.79;82.50;99637.09;5130666;28;19938;-57
2022/11/11 05:57:02;;;;;;;;;;;;;;;3.86;82.02;99634.31;5131245;27;19945;-57
2022/11/11 05:59:49;;;;;;;;;;;;;;;3.72;82.42;99646.25;5126466;27;19935;-55
2022/11/11 06:02:36;;;;;;;;;;;;;;;3.61;82.53;99645.94;5123926;27;19937;-57
2022/11/11 06:05:23;;;;;;;;;;;;;;;3.75;82.83;99635.06;5121818;27;19930;-55
2022/11/11 06:08:11;;;;;;;;;;;;;;;3.81;82.40;99631.47;5126476;27;20382;-57
2022/11/11 06:10:59;;;;;;;;;;;;;;;3.77;82.76;99643.72;5128078;27;20019;-56
2022/11/11 06:14:17;;;;;;;;;;;;;;;3.64;83.13;99645.53;5133327;27;19930;-57
2022/11/11 06:17:05;;;;;;;;;;;;;;;3.78;82.99;99646.22;5122788;27;20300;-58
2022/11/11 06:19:51;;;;;;;;;;;;;;;3.85;82.35;99646.94;5130339;27;19931;-57
2022/11/11 06:28:45;;;;;;;;;;;;;;;3.80;82.10;99657.53;5129161;27;19930;-57
2022/11/11 06:31:32;;;;;;;;;;;;;;;3.88;81.98;99659.09;5132552;27;19934;-57
2022/11/11 06:34:19;;;;;;;;;;;;;;;3.88;81.95;99651.84;5121959;27;19931;-57
2022/11/11 06:40:23;;;;;;;;;;;;;;;3.81;81.97;99647.59;5129921;27;19934;-58
2022/11/11 06:43:10;;;;;;;;;;;;;;;3.82;82.17;99636.63;5131862;27;19942;-58
2022/11/11 06:45:57;;;;;;;;;;;;;;;3.90;81.85;99643.56;5123102;27;19930;-57
2022/11/11 06:48:44;;;;;;;;;;;;;;;3.90;81.85;99643.56;5135028;27;19978;-57
2022/11/11 06:51:30;;;;;;;;;;;;;;;3.96;82.02;99650.75;5129578;27;19984;-57
2022/11/11 06:54:17;;;;;;;;;;;;;;;3.93;81.59;99643.94;5129751;27;19923;-58
2022/11/11 06:57:04;;;;;;;;;;;;;;;3.58;82.96;99653.66;5129675;27;19930;-57
2022/11/11 06:59:54;;;;;;;;;;;;;;;3.49;83.71;99641.56;5131492;27;19930;-56
2022/11/11 07:02:41;;;;;;;;;;;;;;;3.42;84.04;99642.44;5133355;27;19931;-58
2022/11/11 07:05:29;;;;;;;;;;;;;;;3.53;84.40;99630.13;5133992;27;19942;-57
2022/11/11 07:08:16;;;;;;;;;;;;;;;3.60;83.84;99633.56;5130626;27;20566;-57
2022/11/11 07:11:28;;;;;;;;;;;;;;;3.82;83.88;99646.56;5119979;27;19935;-57
2022/11/11 07:14:15;;;;;;;;;;;;;;;3.92;84.03;99650.34;5130027;27;20033;-57
2022/11/11 07:17:02;;;;;;;;;;;;;;;4.04;83.60;99652.28;5130604;27;20272;-57
2022/11/11 07:19:53;;;;;;;;;;;;;;;4.06;83.09;99655.59;5123175;27;19934;-58
2022/11/11 07:22:41;;;;;;;;;;;;;;;4.13;82.95;99662.50;5133302;27;19930;-57
2022/11/11 07:25:27;;;;;;;;;;;;;;;4.22;82.53;99656.84;5131593;27;19945;-57
2022/11/11 07:28:14;;;;;;;;;;;;;;;4.23;82.43;99658.47;5132822;27;19984;-58
2022/11/11 07:31:02;;;;;;;;;;;;;;;4.17;83.15;99662.91;5132824;27;19976;-57
2022/11/11 07:33:49;;;;;;;;;;;;;;;4.30;82.33;99669.97;5127079;27;19975;-57
2022/11/11 07:36:36;;;;;;;;;;;;;;;4.38;82.30;99669.66;5130977;27;20407;-56
2022/11/11 07:39:29;;;;;;;;;;;;;;;4.52;81.63;99673.78;5124371;27;20292;-57
2022/11/11 07:42:17;;;;;;;;;;;;;;;4.61;81.78;99668.91;5128043;27;19944;-57
2022/11/11 07:45:17;;;;;;;;;;;;;;;4.73;81.03;99664.38;5131957;27;19930;-57
2022/11/11 07:48:29;;;;;;;;;;;;;;;4.67;81.08;99668.81;5134549;27;19968;-56
2022/11/11 07:51:18;;;;;;;;;;;;;;;4.70;81.36;99668.38;5121755;27;19958;-57
2022/11/11 07:54:07;;;;;;;;;;;;;;;4.94;80.62;99665.72;5126852;27;19935;-57
2022/11/11 07:56:59;;;;;;;;;;;;;;;5.02;80.46;99662.69;5133249;27;20076;-57
2022/11/11 07:59:46;;;;;;;;;;;;;;;4.95;81.62;99664.66;5133462;27;20011;-56
2022/11/11 08:02:37;;;;;;;;;;;;;;;4.90;82.44;99673.47;5121713;27;19934;-58
2022/11/11 08:08:37;;;;;;;;;;;;;;;5.26;81.82;99675.13;5120666;27;20299;-56
2022/11/11 08:14:27;;;;;;;;;;;;;;;5.41;82.10;99680.06;5121484;27;20011;-57
2022/11/11 08:17:14;;;;;;;;;;;;;;;5.68;81.30;99690.38;5130050;27;20004;-56
2022/11/11 08:20:01;;;;;;;;;;;;;;;5.83;80.98;99692.59;5127849;27;19930;-57
2022/11/11 08:22:56;;;;;;;;;;;;;;;5.93;80.59;99684.75;5132492;27;20080;-58
2022/11/11 08:26:05;;;;;;;;;;;;;;;6.11;79.99;99683.75;5132247;27;19958;-57
2022/11/11 08:28:53;;;;;;;;;;;;;;;6.17;79.94;99680.09;5134693;27;19984;-57
2022/11/11 08:31:39;;;;;;;;;;;;;;;6.25;79.15;99666.25;5126585;27;19934;-57
2022/11/11 08:34:26;;;;;;;;;;;;;;;6.30;79.28;99675.25;5132177;27;19930;-57
2022/11/11 08:40:25;;;;;;;;;;;;;;;6.60;79.10;99679.59;5127065;27;19934;-58
2022/11/11 08:43:12;;;;;;;;;;;;;;;6.72;79.04;99672.25;5131482;27;19931;-58
2022/11/11 08:46:03;;;;;;;;;;;;;;;6.95;77.92;99670.50;5132479;27;19935;-58
2022/11/11 08:48:50;;;;;;;;;;;;;;;7.13;77.51;99677.53;5118864;27;20005;-58
2022/11/11 08:51:37;;;;;;;;;;;;;;;7.17;77.67;99678.69;5121186;27;19924;-57
2022/11/11 08:54:30;;;;;;;;;;;;;;;7.34;77.48;99683.00;5133600;27;20340;-57
2022/11/11 09:00:52;;;;;;;;;;;;;;;7.27;78.12;99682.38;5131134;27;19931;-57
2022/11/11 09:03:44;;;;;;;;;;;;;;;7.54;77.60;99685.22;5127750;27;20214;-57
2022/11/11 09:06:31;;;;;;;;;;;;;;;7.66;77.48;99687.00;5123267;27;19923;-57
2022/11/11 09:09:19;;;;;;;;;;;;;;;7.69;77.87;99689.22;5132066;27;20021;-55
2022/11/11 09:12:05;;;;;;;;;;;;;;;7.89;77.69;99689.50;5126345;27;19931;-56
2022/11/11 09:14:52;;;;;;;;;;;;;;;8.02;76.98;99694.53;5122862;27;20395;-57
2022/11/11 09:17:39;;;;;;;;;;;;;;;8.09;76.98;99686.22;5127092;27;20301;-58
2022/11/11 09:20:28;;;;;;;;;;;;;;;7.91;78.08;99695.47;5126272;27;20485;-58
2022/11/11 09:23:15;;;;;;;;;;;;;;;7.91;78.36;99694.66;5131764;27;20036;-57
2022/11/11 09:26:03;;;;;;;;;;;;;;;8.25;77.71;99688.06;5122859;27;20007;-56
2022/11/11 09:28:50;;;;;;;;;;;;;;;8.25;77.76;99701.59;5124517;27;20084;-57
2022/11/11 09:31:37;;;;;;;;;;;;;;;8.38;77.61;99701.25;5125414;27;19931;-57
2022/11/11 09:34:30;;;;;;;;;;;;;;;8.51;77.32;99701.94;5126969;28;20005;-57
2022/11/11 09:40:32;;;;;;;;;;;;;;;8.55;77.94;99708.47;5132593;27;19933;-57
2022/11/11 09:43:23;;;;;;;;;;;;;;;8.69;78.02;99712.44;5129534;28;19930;-57
2022/11/11 09:46:16;;;;;;;;;;;;;;;8.67;78.15;99714.56;5127003;27;19934;-57
2022/11/11 09:49:22;;;;;;;;;;;;;;;8.96;77.38;99707.03;5123281;28;19934;-57
2022/11/11 09:52:10;;;;;;;;;;;;;;;9.14;76.94;99711.25;5121004;28;19942;-57
2022/11/11 09:54:59;;;;;;;;;;;;;;;9.14;77.49;99708.53;5131137;28;19923;-57
2022/11/11 09:57:46;;;;;;;;;;;;;;;9.25;77.35;99712.13;5131521;27;19931;-57
2022/11/11 10:00:59;;;;;;;;;;;;;;;9.39;77.15;99716.88;5131264;27;19935;-57
2022/11/11 10:03:47;;;;;;;;;;;;;;;9.52;77.00;99715.63;5124289;28;19931;-57
2022/11/11 10:06:35;;;;;;;;;;;;;;;9.36;77.72;99714.69;5120849;27;19931;-57
2022/11/11 10:09:24;;;;;;;;;;;;;;;9.53;77.51;99711.00;5121274;27;19930;-57
2022/11/11 10:12:14;;;;;;;;;;;;;;;9.58;76.95;99702.91;5129666;27;19935;-57
2022/11/11 10:15:04;;;;;;;;;;;;;;;9.78;76.27;99702.22;5131396;28;19934;-56
2022/11/11 10:17:59;;;;;;;;;;;;;;;9.98;75.85;99707.78;5126927;28;19939;-58
2022/11/11 10:20:48;;;;;;;;;;;;;;;10.12;75.39;99703.50;5127079;27;20409;-57
2022/11/11 10:23:35;;;;;;;;;;;;;;;10.23;75.29;99707.94;5118856;28;20294;-57
2022/11/11 10:26:24;;;;;;;;;;;;;;;10.34;75.13;99711.50;5121651;28;19963;-59
2022/11/11 10:29:13;;;;;;;;;;;;;;;10.40;74.81;99699.56;5125848;27;20645;-57
2022/11/11 10:32:02;;;;;;;;;;;;;;;10.27;75.45;99694.63;5122658;27;20101;-57
2022/11/11 10:35:15;;;;;;;;;;;;;;;10.52;74.72;99684.94;5125141;28;19972;-57
2022/11/11 10:38:29;;;;;;;;;;;;;;;10.80;73.97;99698.03;5122805;28;19968;-56
2022/11/11 10:41:40;;;;;;;;;;;;;;;11.02;72.93;99689.63;5109863;27;19948;-56
2022/11/11 10:44:29;;;;;;;;;;;;;;;10.96;73.03;99683.38;5118335;28;19931;-56
2022/11/11 10:47:18;;;;;;;;;;;;;;;11.08;72.91;99693.19;5117979;28;20007;-56
2022/11/11 10:50:07;;;;;;;;;;;;;;;11.22;72.19;99686.13;5132138;27;20077;-56
2022/11/11 10:52:56;;;;;;;;;;;;;;;11.32;71.17;99683.41;5126037;27;19929;-57
2022/11/11 10:55:43;;;;;;;;;;;;;;;11.28;70.99;99687.75;5125280;27;20299;-57
2022/11/11 10:58:55;;;;;;;;;;;;;;;11.20;71.24;99680.97;5131258;27;19930;-57
2022/11/11 11:01:48;;;;;;;;;;;;;;;11.30;71.25;99685.59;5127389;27;19980;-57
2022/11/11 11:04:36;;;;;;;;;;;;;;;11.18;71.78;99687.75;5127380;27;20853;-56
2022/11/11 11:07:24;;;;;;;;;;;;;;;11.20;72.42;99680.97;5133790;27;19930;-55
2022/11/11 11:10:12;;;;;;;;;;;;;;;11.25;72.12;99686.41;5126648;27;19931;-62
2022/11/11 11:13:00;;;;;;;;;;;;;;;11.49;71.23;99683.94;5133550;27;20045;-57
2022/11/11 11:16:12;;;;;;;;;;;;;;;11.59;70.92;99680.38;5127830;27;20289;-57
2022/11/11 11:19:15;;;;;;;;;;;;;;;11.79;69.84;99682.25;5128007;27;19934;-56
2022/11/11 11:22:03;;;;;;;;;;;;;;;11.82;69.88;99681.72;5127683;27;20023;-57
2022/11/11 11:24:50;;;;;;;;;;;;;;;12.04;69.37;99673.25;5119576;27;20103;-56
2022/11/11 11:27:37;;;;;;;;;;;;;;;12.18;68.76;99668.00;5127863;27;20449;-56
2022/11/11 11:30:24;;;;;;;;;;;;;;;12.23;67.91;99670.72;5124707;27;19939;-55
2022/11/11 11:33:10;;;;;;;;;;;;;;;12.43;67.35;99657.00;5123253;27;19931;-56
2022/11/11 11:35:58;;;;;;;;;;;;;;;12.30;67.91;99660.31;5124566;27;19934;-57
2022/11/11 11:38:46;;;;;;;;;;;;;;;12.46;67.29;99659.13;5133839;27;20012;-57
2022/11/11 11:41:37;;;;;;;;;;;;;;;12.35;66.46;99660.28;5127244;27;19942;-57
2022/11/11 11:44:26;;;;;;;;;;;;;;;12.44;66.63;99646.91;5131618;27;19930;-57
2022/11/11 11:47:20;;;;;;;;;;;;;;;12.58;67.49;99647.91;5125135;27;19980;-57
2022/11/11 11:50:11;;;;;;;;;;;;;;;12.56;66.42;99641.91;5129407;27;19931;-57
2022/11/11 11:53:02;;;;;;;;;;;;;;;12.58;66.02;99651.44;5125564;27;21186;-57
2022/11/11 11:55:51;;;;;;;;;;;;;;;12.61;65.73;99649.25;5120980;27;20399;-56
2022/11/11 11:58:40;;;;;;;;;;;;;;;12.56;66.52;99656.34;5118933;27;20437;-57
2022/11/11 12:01:31;;;;;;;;;;;;;;;12.46;66.37;99659.13;5124304;27;19931;-58
2022/11/11 12:04:32;;;;;;;;;;;;;;;12.69;65.28;99662.31;5126187;27;19973;-57
2022/11/11 12:07:23;;;;;;;;;;;;;;;12.62;65.46;99662.59;5122796;27;19933;-58
2022/11/11 12:10:15;;;;;;;;;;;;;;;12.56;65.37;99653.63;5130333;27;19993;-57
2022/11/11 12:13:04;;;;;;;;;;;;;;;12.41;64.95;99651.00;5126342;27;19924;-56
2022/11/11 12:15:58;;;;;;;;;;;;;;;12.44;64.73;99646.91;5135489;27;20052;-57
2022/11/11 12:18:52;;;;;;;;;;;;;;;12.30;65.22;99643.97;5132694;27;19931;-57
2022/11/11 12:21:40;;;;;;;;;;;;;;;12.21;65.52;99640.22;5126550;27;20518;-57
2022/11/11 12:24:31;;;;;;;;;;;;;;;12.10;65.97;99633.19;5124592;27;19931;-57
2022/11/11 12:27:21;;;;;;;;;;;;;;;12.04;66.33;99632.38;5132583;27;19923;-57
2022/11/11 12:30:08;;;;;;;;;;;;;;;12.00;66.12;99620.41;5133127;27;19924;-57
2022/11/11 12:33:06;;;;;;;;;;;;;;;12.03;65.78;99623.38;5132891;27;20046;-57
2022/11/11 12:35:57;;;;;;;;;;;;;;;12.05;65.69;99623.13;5128594;27;20418;-56
2022/11/11 12:38:49;;;;;;;;;;;;;;;12.01;66.77;99617.41;5130097;27;20321;-58
2022/11/11 12:41:40;;;;;;;;;;;;;;;12.10;65.97;99616.84;5130625;27;20252;-57
2022/11/11 12:44:30;;;;;;;;;;;;;;;11.97;67.49;99629.94;5129841;27;20391;-57
2022/11/11 12:47:25;;;;;;;;;;;;;;;12.03;66.71;99625.28;5126366;27;19931;-55
2022/11/11 12:50:14;;;;;;;;;;;;;;;12.03;67.48;99617.91;5132271;27;20418;-57
2022/11/11 12:53:07;;;;;;;;;;;;;;;11.95;70.25;99628.59;5131641;27;20390;-57
2022/11/11 12:55:58;;;;;;;;;;;;;;;12.18;67.01;99630.66;5127702;27;20438;-57
2022/11/11 12:58:46;;;;;;;;;;;;;;;12.25;66.09;99630.34;5128383;27;20414;-58
2022/11/11 13:01:41;;;;;;;;;;;;;;;12.24;66.31;99632.25;5116413;27;19942;-57
2022/11/11 13:04:31;;;;;;;;;;;;;;;12.25;66.81;99631.19;5125670;27;20033;-57
2022/11/11 13:07:24;;;;;;;;;;;;;;;12.28;66.80;99640.72;5127566;27;19946;-55
2022/11/11 13:10:14;;;;;;;;;;;;;;;12.33;66.57;99638.78;5129961;27;20018;-58
2022/11/11 13:13:03;;;;;;;;;;;;;;;12.43;66.31;99629.72;5129079;27;19930;-57
2022/11/11 13:15:55;;;;;;;;;;;;;;;12.49;66.11;99628.59;5131558;27;19992;-57
2022/11/11 13:18:45;;;;;;;;;;;;;;;12.52;65.94;99630.78;5128184;27;20326;-57
2022/11/11 13:21:35;;;;;;;;;;;;;;;12.53;65.62;99631.59;5132038;27;20008;-57
2022/11/11 13:24:22;;;;;;;;;;;;;;;12.51;66.20;99633.75;5126429;27;20372;-58
2022/11/11 13:27:12;;;;;;;;;;;;;;;12.55;65.74;99634.84;5126384;27;19930;-56
2022/11/11 13:30:02;;;;;;;;;;;;;;;12.59;65.27;99627.72;5132174;27;19930;-58
2022/11/11 13:32:50;;;;;;;;;;;;;;;12.57;65.73;99624.47;5131197;27;19944;-58
2022/11/11 13:35:39;;;;;;;;;;;;;;;12.62;65.48;99629.06;5121946;27;20398;-56
2022/11/11 13:41:39;;;;;;;;;;;;;;;12.65;65.34;99628.50;5131485;27;19934;-58
2022/11/11 13:44:26;;;;;;;;;;;;;;;12.69;65.00;99627.66;5128758;27;20001;-58
2022/11/11 13:47:13;;;;;;;;;;;;;;;12.66;64.98;99627.41;5132837;27;20325;-57
2022/11/11 13:50:00;;;;;;;;;;;;;;;12.63;65.25;99630.72;5127490;28;19931;-57
2022/11/11 13:52:54;;;;;;;;;;;;;;;12.55;65.35;99630.19;5128219;27;20434;-56
2022/11/11 13:55:41;;;;;;;;;;;;;;;12.45;65.34;99635.69;5124056;28;19941;-57
2022/11/11 14:01:40;;;;;;;;;;;;;;;12.43;65.42;99626.19;5122504;27;19930;-57
2022/11/11 14:04:28;;;;;;;;;;;;;;;12.44;65.79;99631.34;5123545;28;19930;-57
2022/11/11 14:07:30;;;;;;;;;;;;;;;12.45;66.45;99626.72;5127150;28;19934;-57
2022/11/11 14:10:44;;;;;;;;;;;;;;;12.48;66.05;99632.44;5131902;27;20030;-58
2022/11/11 14:13:40;;;;;;;;;;;;;;;12.53;66.28;99632.41;5127857;28;19931;-57
2022/11/11 14:16:46;;;;;;;;;;;;;;;12.52;66.52;99624.50;5127031;27;20033;-57
2022/11/11 14:19:33;;;;;;;;;;;;;;;12.48;67.27;99629.69;5126396;28;19991;-57
2022/11/11 14:22:27;;;;;;;;;;;;;;;12.45;67.33;99634.88;5131170;27;19930;-57
2022/11/11 14:25:21;;;;;;;;;;;;;;;12.39;68.17;99630.56;5134041;27;19930;-57
2022/11/11 14:28:20;;;;;;;;;;;;;;;12.37;67.89;99632.78;5134650;27;20437;-57
2022/11/11 14:31:22;;;;;;;;;;;;;;;12.32;68.60;99633.59;5134150;27;19930;-57
2022/11/11 14:34:12;;;;;;;;;;;;;;;12.24;68.88;99636.91;5125838;27;19931;-56
2022/11/11 14:37:01;;;;;;;;;;;;;;;12.16;69.41;99632.88;5133027;27;19930;-57
2022/11/11 14:39:49;;;;;;;;;;;;;;;12.11;69.32;99630.16;5130432;27;19931;-57
2022/11/11 14:42:43;;;;;;;;;;;;;;;12.01;69.94;99632.94;5127319;27;19976;-58
2022/11/11 14:45:57;;;;;;;;;;;;;;;11.94;70.17;99625.06;5123806;27;20031;-57
2022/11/11 14:48:51;;;;;;;;;;;;;;;11.86;70.38;99631.06;5123352;27;19977;-57
2022/11/11 14:51:48;;;;;;;;;;;;;;;11.78;70.92;99642.50;5124316;27;19923;-57
2022/11/11 14:54:48;;;;;;;;;;;;;;;11.71;71.07;99641.97;5133374;27;20030;-56
2022/11/11 14:57:37;;;;;;;;;;;;;;;11.63;71.37;99648.00;5129332;27;19931;-56
2022/11/11 15:00:25;;;;;;;;;;;;;;;11.57;71.12;99643.66;5133077;27;19930;-57
2022/11/11 15:03:21;;;;;;;;;;;;;;;11.48;71.20;99646.91;5122582;27;19931;-57
2022/11/11 15:06:11;;;;;;;;;;;;;;;11.41;71.79;99640.97;5127583;27;19930;-57
2022/11/11 15:08:59;;;;;;;;;;;;;;;11.34;71.88;99645.03;5133291;27;19996;-56
2022/11/11 15:11:47;;;;;;;;;;;;;;;11.27;72.29;99637.97;5134511;27;20057;-57
2022/11/11 15:14:34;;;;;;;;;;;;;;;11.25;72.45;99636.63;5124890;27;19934;-58
2022/11/11 15:17:23;;;;;;;;;;;;;;;11.17;72.70;99634.44;5129166;27;20000;-57
2022/11/11 15:20:22;;;;;;;;;;;;;;;11.08;72.91;99630.63;5126487;27;19934;-57
2022/11/11 15:23:16;;;;;;;;;;;;;;;11.02;73.06;99630.66;5132434;27;20287;-57
2022/11/11 15:26:28;;;;;;;;;;;;;;;10.93;73.65;99631.47;5130852;27;19931;-56
2022/11/11 15:29:20;;;;;;;;;;;;;;;10.85;73.78;99630.09;5133399;27;20422;-57
2022/11/11 15:32:08;;;;;;;;;;;;;;;10.80;73.98;99637.41;5130551;27;20398;-58
2022/11/11 15:34:56;;;;;;;;;;;;;;;10.74;74.08;99633.88;5133601;27;20398;-56
2022/11/11 15:37:44;;;;;;;;;;;;;;;10.68;74.56;99632.25;5134464;27;19923;-56
2022/11/11 15:40:42;;;;;;;;;;;;;;;10.63;74.91;99633.06;5123088;27;20372;-57
2022/11/11 15:43:31;;;;;;;;;;;;;;;10.56;75.07;99634.41;5134099;27;19935;-57
2022/11/11 15:46:21;;;;;;;;;;;;;;;10.51;75.13;99637.94;5127103;27;20398;-57
2022/11/11 15:49:11;;;;;;;;;;;;;;;10.45;75.11;99636.28;5125226;27;19980;-57
2022/11/11 15:51:59;;;;;;;;;;;;;;;10.41;75.44;99635.19;5124306;27;20403;-58
2022/11/11 15:54:53;;;;;;;;;;;;;;;10.35;76.12;99642.50;5102185;27;20001;-57
2022/11/11 15:57:42;;;;;;;;;;;;;;;10.31;76.08;99637.88;5125491;27;20003;-58
2022/11/11 16:03:43;;;;;;;;;;;;;;;10.18;76.54;99647.31;5126368;27;20015;-57
2022/11/11 16:06:30;;;;;;;;;;;;;;;10.14;76.81;99648.91;5121859;27;20059;-58
2022/11/11 16:09:19;;;;;;;;;;;;;;;10.13;76.53;99650.00;5126054;27;19930;-55
2022/11/11 16:12:09;;;;;;;;;;;;;;;10.05;77.31;99647.78;5130949;27;19935;-58
2022/11/11 16:14:58;;;;;;;;;;;;;;;10.01;77.73;99641.25;5129541;27;20061;-58
2022/11/11 16:17:46;;;;;;;;;;;;;;;9.97;77.84;99641.78;5126570;27;19972;-57
2022/11/11 16:20:34;;;;;;;;;;;;;;;9.93;78.05;99651.53;5117622;27;20112;-57
2022/11/11 16:23:22;;;;;;;;;;;;;;;9.88;78.34;99648.81;5119085;27;19984;-59
2022/11/11 16:26:09;;;;;;;;;;;;;;;9.83;78.48;99654.22;5123135;27;19976;-58
2022/11/11 16:28:57;;;;;;;;;;;;;;;9.78;78.71;99643.31;5133713;27;19927;-57
2022/11/11 16:31:50;;;;;;;;;;;;;;;9.72;78.79;99647.09;5131152;27;19929;-57
2022/11/11 16:34:44;;;;;;;;;;;;;;;9.65;79.00;99641.09;5128505;27;19931;-57
2022/11/11 16:37:32;;;;;;;;;;;;;;;9.62;79.28;99647.03;5121875;27;19946;-57
2022/11/11 16:40:29;;;;;;;;;;;;;;;9.60;79.28;99641.06;5126948;27;19976;-57
2022/11/11 16:43:18;;;;;;;;;;;;;;;9.56;79.51;99637.22;5128705;27;20363;-57
2022/11/11 16:46:06;;;;;;;;;;;;;;;9.49;79.64;99645.59;5126233;27;19934;-56
2022/11/11 16:48:54;;;;;;;;;;;;;;;9.49;79.74;99633.94;5120538;27;19930;-57
2022/11/11 16:51:43;;;;;;;;;;;;;;;9.46;79.79;99640.69;5117031;27;19930;-57
2022/11/11 16:54:31;;;;;;;;;;;;;;;9.41;79.93;99643.38;5118232;27;19983;-58